Time;durP1;ratioP1;P1;durP2;ratioP2;P2;SDS_P1;SDS_P2;PMS_P1;PMS_P2;Temp;Humidity;BMP_temperature;BMP_pressure;BME280_temperature;BME280_humidity;BME280_pressure;Samples;Min_cycle;Max_cycle;Signal;HPM_P1;HPM_P2
2024/03/16 00:00:51;;;;;;;8.98;0.73;;;11.00;80.80;;;;;;4963066;28;20465;-80
2024/03/16 00:03:19;;;;;;;0.10;0.10;;;11.00;76.60;;;;;;4960299;28;20039;-82
2024/03/16 00:05:46;;;;;;;0.25;0.25;;;11.00;74.90;;;;;;4966489;28;20035;-80
2024/03/16 00:08:12;;;;;;;0.13;0.13;;;11.00;78.60;;;;;;4966105;28;20035;-80
2024/03/16 00:10:38;;;;;;;0.10;0.10;;;11.00;86.70;;;;;;4969091;28;20400;-82
2024/03/16 00:13:06;;;;;;;1.40;0.73;;;11.00;89.00;;;;;;4963649;28;20121;-80
2024/03/16 00:15:32;;;;;;;0.10;0.10;;;11.00;95.20;;;;;;4962037;28;20039;-81
2024/03/16 00:17:59;;;;;;;0.10;0.10;;;10.90;97.80;;;;;;4962536;28;20031;-81
2024/03/16 00:20:26;;;;;;;0.55;0.55;;;10.90;99.90;;;;;;4968062;28;20034;-82
2024/03/16 00:22:52;;;;;;;0.15;0.15;;;10.90;99.90;;;;;;4965020;28;20030;-81
2024/03/16 00:25:18;;;;;;;0.10;0.10;;;10.90;99.90;;;;;;4950573;28;20376;-80
2024/03/16 00:27:45;;;;;;;0.38;0.38;;;10.80;99.90;;;;;;4965587;28;20389;-81
2024/03/16 00:30:11;;;;;;;0.10;0.10;;;10.80;99.90;;;;;;4962622;28;20039;-81
2024/03/16 00:32:38;;;;;;;0.10;0.10;;;10.70;99.90;;;;;;4961761;28;20381;-81
2024/03/16 00:35:04;;;;;;;0.15;0.15;;;10.70;99.90;;;;;;4964766;28;20027;-82
2024/03/16 00:37:31;;;;;;;0.25;0.25;;;10.60;99.90;;;;;;4967989;28;20049;-82
2024/03/16 00:39:58;;;;;;;0.38;0.38;;;10.70;99.90;;;;;;4966618;28;20499;-78
2024/03/16 00:42:24;;;;;;;0.20;0.20;;;10.60;99.90;;;;;;4965120;28;20074;-81
2024/03/16 00:44:50;;;;;;;0.30;0.30;;;10.60;99.90;;;;;;4967871;28;20492;-82
2024/03/16 00:47:16;;;;;;;0.10;0.10;;;10.50;99.90;;;;;;4960516;28;20620;-81
2024/03/16 00:49:43;;;;;;;1.55;0.55;;;10.40;99.90;;;;;;4945123;28;20055;-82
2024/03/16 00:52:09;;;;;;;0.40;0.30;;;10.30;99.90;;;;;;4961912;28;20035;-81
2024/03/16 00:54:35;;;;;;;0.10;0.10;;;10.30;99.90;;;;;;4957292;28;20392;-81
2024/03/16 00:57:02;;;;;;;0.20;0.20;;;10.30;99.90;;;;;;4952275;28;20047;-78
2024/03/16 00:59:28;;;;;;;0.30;0.30;;;10.30;99.90;;;;;;4969749;28;20051;-81
2024/03/16 01:01:54;;;;;;;0.10;0.10;;;10.30;99.90;;;;;;4963715;28;20039;-78
2024/03/16 01:04:21;;;;;;;0.10;0.10;;;10.20;99.90;;;;;;4953456;28;20095;-82
2024/03/16 01:06:47;;;;;;;0.43;0.43;;;10.20;99.90;;;;;;4966766;28;20031;-80
2024/03/16 01:09:16;;;;;;;0.10;0.10;;;10.30;99.90;;;;;;4964020;28;20027;-80
2024/03/16 01:11:43;;;;;;;0.80;0.43;;;10.30;99.90;;;;;;4965934;28;20040;-81
2024/03/16 01:14:09;;;;;;;0.10;0.10;;;10.30;99.90;;;;;;4964920;28;20034;-80
2024/03/16 01:16:35;;;;;;;0.10;0.10;;;10.30;99.90;;;;;;4958555;28;20495;-77
2024/03/16 01:19:01;;;;;;;0.10;0.10;;;10.30;99.90;;;;;;4959596;28;20397;-80
2024/03/16 01:21:27;;;;;;;0.73;0.40;;;10.30;99.90;;;;;;4965032;28;20400;-80
2024/03/16 01:23:54;;;;;;;0.28;0.28;;;10.30;99.90;;;;;;4965301;28;20043;-80
2024/03/16 01:26:20;;;;;;;0.10;0.10;;;10.30;99.90;;;;;;4965288;28;20026;-81
2024/03/16 01:28:47;;;;;;;0.30;0.30;;;10.30;99.90;;;;;;4962171;28;20046;-78
2024/03/16 01:31:13;;;;;;;0.10;0.10;;;10.30;99.90;;;;;;4963733;28;20370;-80
2024/03/16 01:33:39;;;;;;;0.20;0.20;;;10.40;99.90;;;;;;4965044;28;20030;-82
2024/03/16 01:36:06;;;;;;;0.10;0.10;;;10.30;99.90;;;;;;4960895;28;20050;-82
2024/03/16 01:38:32;;;;;;;0.20;0.20;;;10.40;99.90;;;;;;4964798;28;20061;-79
2024/03/16 01:40:58;;;;;;;0.43;0.30;;;10.30;99.90;;;;;;4965774;28;20047;-78
2024/03/16 01:43:24;;;;;;;0.47;0.47;;;10.40;99.90;;;;;;4965397;28;20057;-79
2024/03/16 01:45:51;;;;;;;0.10;0.10;;;10.30;99.90;;;;;;4954604;28;20083;-82
2024/03/16 01:48:17;;;;;;;0.10;0.10;;;10.40;99.90;;;;;;4953168;28;20035;-82
2024/03/16 01:50:44;;;;;;;0.20;0.20;;;10.30;99.90;;;;;;4964004;28;20031;-82
2024/03/16 01:53:11;;;;;;;0.10;0.10;;;10.20;99.90;;;;;;4953567;28;20034;-83
2024/03/16 01:55:38;;;;;;;0.47;0.47;;;10.20;99.90;;;;;;4967016;28;20035;-83
2024/03/16 01:58:04;;;;;;;0.10;0.10;;;10.20;99.90;;;;;;4962884;28;20031;-81
2024/03/16 02:00:31;;;;;;;0.40;0.22;;;10.20;1.00;;;;;;4964401;28;20039;-81
2024/03/16 02:02:57;;;;;;;0.10;0.10;;;10.10;1.00;;;;;;4963001;28;20039;-79
2024/03/16 02:05:24;;;;;;;0.30;0.30;;;10.10;1.00;;;;;;4960929;28;20043;-88
2024/03/16 02:07:50;;;;;;;1.95;0.20;;;10.00;1.00;;;;;;4965941;28;20039;-90
2024/03/16 02:10:17;;;;;;;0.10;0.10;;;10.00;19.00;;;;;;4967675;28;20393;-92
2024/03/16 02:12:43;;;;;;;0.77;0.63;;;9.90;55.10;;;;;;4970736;28;20042;-91
2024/03/16 02:15:10;;;;;;;0.15;0.15;;;9.90;99.90;;;;;;4968646;28;20058;-93
2024/03/16 02:17:37;;;;;;;0.28;0.22;;;9.90;99.90;;;;;;4958393;28;20042;-91
2024/03/16 02:20:26;;;;;;;0.30;0.30;;;9.80;99.90;;;;;;4964866;28;20046;-89
2024/03/16 02:22:51;;;;;;;0.20;0.20;;;9.80;99.90;;;;;;4949769;28;20051;-88
2024/03/16 02:25:18;;;;;;;0.10;0.10;;;9.70;99.90;;;;;;4966542;28;20066;-89
2024/03/16 02:27:44;;;;;;;0.10;0.10;;;9.70;1.00;;;;;;4963236;28;20330;-89
2024/03/16 02:30:12;;;;;;;0.10;0.10;;;9.70;1.00;;;;;;4963266;28;20046;-87
2024/03/16 02:32:39;;;;;;;0.10;0.10;;;9.70;1.00;;;;;;4961794;28;20035;-86
2024/03/16 02:35:08;;;;;;;0.10;0.10;;;9.60;1.00;;;;;;4961979;28;20046;-87
2024/03/16 02:37:34;;;;;;;0.10;0.10;;;9.60;1.00;;;;;;4964634;28;20031;-86
2024/03/16 02:40:01;;;;;;;0.10;0.10;;;9.60;18.30;;;;;;4967092;28;20403;-80
2024/03/16 02:42:30;;;;;;;0.10;0.10;;;9.60;57.40;;;;;;4965946;28;20055;-88
2024/03/16 02:44:56;;;;;;;0.20;0.20;;;9.60;97.30;;;;;;4961738;28;20046;-87
2024/03/16 02:47:24;;;;;;;0.13;0.13;;;9.50;99.90;;;;;;4956099;28;20042;-86
2024/03/16 02:49:51;;;;;;;0.13;0.13;;;9.50;99.90;;;;;;4962020;28;20035;-85
2024/03/16 02:52:17;;;;;;;0.10;0.10;;;9.50;99.90;;;;;;4966462;28;20043;-85
2024/03/16 02:54:43;;;;;;;0.20;0.20;;;9.50;99.90;;;;;;4965461;28;20041;-87
2024/03/16 02:57:09;;;;;;;0.10;0.10;;;9.40;99.90;;;;;;4964079;28;20449;-86
2024/03/16 02:59:36;;;;;;;0.47;0.32;;;9.40;99.90;;;;;;4962311;28;20396;-85
2024/03/16 03:02:02;;;;;;;0.10;0.10;;;9.30;99.90;;;;;;4964632;28;20031;-80
2024/03/16 03:04:28;;;;;;;0.10;0.10;;;9.30;99.90;;;;;;4969943;28;20031;-86
2024/03/16 03:06:54;;;;;;;0.10;0.10;;;9.20;99.90;;;;;;4969085;28;20034;-84
2024/03/16 03:09:20;;;;;;;0.10;0.10;;;9.10;99.90;;;;;;4970740;28;20050;-85
2024/03/16 03:11:48;;;;;;;0.20;0.20;;;9.00;99.90;;;;;;4971587;28;20054;-86
2024/03/16 03:14:17;;;;;;;0.22;0.22;;;8.90;99.90;;;;;;4967968;28;20043;-84
2024/03/16 03:16:43;;;;;;;0.10;0.10;;;8.90;99.90;;;;;;4970044;28;20043;-84
2024/03/16 03:19:09;;;;;;;0.35;0.35;;;8.80;99.90;;;;;;4965999;28;20453;-85
2024/03/16 03:21:36;;;;;;;0.13;0.13;;;8.80;99.90;;;;;;4971084;28;20043;-84
2024/03/16 03:24:03;;;;;;;0.30;0.30;;;8.80;99.90;;;;;;4968167;28;20027;-80
2024/03/16 03:26:29;;;;;;;0.20;0.20;;;8.80;99.90;;;;;;4967693;28;20054;-83
2024/03/16 03:28:55;;;;;;;0.20;0.20;;;8.80;99.90;;;;;;4963718;28;20046;-83
2024/03/16 03:31:22;;;;;;;0.68;0.45;;;8.80;99.90;;;;;;4959970;28;20039;-83
2024/03/16 03:33:48;;;;;;;0.47;0.47;;;8.80;99.90;;;;;;4956010;28;20031;-83
2024/03/16 03:36:15;;;;;;;0.10;0.10;;;8.90;99.90;;;;;;4965604;28;20468;-80
2024/03/16 03:38:41;;;;;;;0.63;0.63;;;8.90;99.90;;;;;;4969178;28;20047;-83
2024/03/16 03:41:08;;;;;;;0.28;0.28;;;8.90;99.90;;;;;;4967650;28;20050;-82
2024/03/16 03:43:36;;;;;;;0.10;0.10;;;8.90;99.90;;;;;;4971645;28;20050;-81
2024/03/16 03:46:04;;;;;;;0.10;0.10;;;8.90;99.90;;;;;;4962204;28;20052;-79
2024/03/16 03:48:41;;;;;;;0.15;0.15;;;9.00;99.90;;;;;;4976545;28;20034;-84
2024/03/16 03:51:07;;;;;;;0.10;0.10;;;9.00;99.90;;;;;;4972371;28;20414;-78
2024/03/16 03:53:33;;;;;;;0.38;0.25;;;9.00;99.90;;;;;;4970034;28;20035;-87
2024/03/16 03:56:00;;;;;;;0.75;0.45;;;9.00;99.90;;;;;;4969368;28;20035;-83
2024/03/16 03:58:26;;;;;;;0.20;0.20;;;9.00;99.90;;;;;;4965340;28;20031;-82
2024/03/16 04:00:52;;;;;;;0.20;0.20;;;9.00;99.90;;;;;;4964299;28;20042;-84
2024/03/16 04:03:18;;;;;;;0.10;0.10;;;9.00;99.90;;;;;;4961397;28;20042;-83
2024/03/16 04:05:45;;;;;;;0.10;0.10;;;9.00;99.90;;;;;;4968005;28;20039;-83
2024/03/16 04:08:11;;;;;;;0.20;0.20;;;9.00;99.90;;;;;;4968579;28;20047;-83
2024/03/16 04:10:38;;;;;;;2.95;0.75;;;9.00;99.90;;;;;;4967907;28;20042;-84
2024/03/16 04:13:05;;;;;;;0.20;0.20;;;8.90;99.90;;;;;;4968711;28;20480;-80
2024/03/16 04:15:31;;;;;;;0.43;0.22;;;8.90;99.90;;;;;;4966847;28;20041;-84
2024/03/16 04:17:57;;;;;;;0.10;0.10;;;8.90;99.90;;;;;;4962146;28;20389;-84
2024/03/16 04:20:24;;;;;;;0.10;0.10;;;8.90;99.90;;;;;;4963427;28;20054;-82
2024/03/16 04:22:50;;;;;;;0.10;0.10;;;8.80;99.90;;;;;;4968722;28;20038;-84
2024/03/16 04:25:16;;;;;;;0.20;0.20;;;8.80;99.90;;;;;;4966313;28;20031;-83
2024/03/16 04:27:43;;;;;;;0.10;0.10;;;8.70;99.90;;;;;;4967759;28;20034;-84
2024/03/16 04:30:13;;;;;;;0.10;0.10;;;8.70;99.90;;;;;;4961533;28;20042;-79
2024/03/16 04:32:39;;;;;;;0.17;0.17;;;8.60;99.90;;;;;;4963377;28;20559;-84
2024/03/16 04:35:06;;;;;;;0.10;0.10;;;8.50;99.90;;;;;;4966864;28;20035;-76
2024/03/16 04:37:35;;;;;;;0.10;0.10;;;8.50;99.90;;;;;;4966843;28;20039;-83
2024/03/16 04:40:06;;;;;;;0.20;0.20;;;8.40;99.90;;;;;;4966741;28;20047;-83
2024/03/16 04:42:32;;;;;;;2.42;0.88;;;8.40;99.90;;;;;;4966981;28;20051;-85
2024/03/16 04:44:58;;;;;;;0.30;0.30;;;8.30;99.90;;;;;;4960928;28;20039;-83
2024/03/16 04:47:24;;;;;;;0.15;0.15;;;8.30;99.90;;;;;;4962565;28;20489;-84
2024/03/16 04:49:50;;;;;;;0.10;0.10;;;8.30;99.90;;;;;;4962015;28;20035;-84
2024/03/16 04:52:17;;;;;;;0.20;0.20;;;8.40;99.90;;;;;;4967650;28;20042;-84
2024/03/16 04:54:43;;;;;;;1.27;0.63;;;8.40;99.90;;;;;;4967829;28;20030;-85
2024/03/16 04:57:09;;;;;;;0.10;0.10;;;8.40;99.90;;;;;;4966496;28;20035;-80
2024/03/16 04:59:35;;;;;;;0.17;0.17;;;8.40;99.90;;;;;;4964768;28;20045;-84
2024/03/16 05:02:01;;;;;;;0.10;0.10;;;8.50;99.90;;;;;;4961291;28;20030;-84
2024/03/16 05:04:28;;;;;;;0.32;0.30;;;8.50;99.90;;;;;;4965418;28;20120;-85
2024/03/16 05:06:54;;;;;;;0.10;0.10;;;8.60;99.90;;;;;;4964974;28;20465;-85
2024/03/16 05:09:20;;;;;;;0.10;0.10;;;8.60;99.90;;;;;;4968893;28;20062;-84
2024/03/16 05:11:46;;;;;;;0.10;0.10;;;8.60;99.90;;;;;;4968088;28;20058;-85
2024/03/16 05:14:13;;;;;;;0.10;0.10;;;8.70;99.90;;;;;;4966801;28;20055;-83
2024/03/16 05:16:42;;;;;;;0.25;0.25;;;8.60;99.90;;;;;;4963460;28;20027;-85
2024/03/16 05:19:08;;;;;;;0.00;0.00;;;8.70;99.90;;;;;;4962368;28;20053;-80
2024/03/16 05:21:35;;;;;;;0.10;0.10;;;8.70;99.90;;;;;;4965860;28;20050;-85
2024/03/16 05:24:01;;;;;;;0.32;0.32;;;8.80;99.90;;;;;;4966793;28;20027;-86
2024/03/16 05:26:30;;;;;;;0.22;0.22;;;8.80;99.90;;;;;;4966638;28;20030;-83
2024/03/16 05:28:57;;;;;;;0.10;0.10;;;8.80;99.90;;;;;;4963917;28;20035;-86
2024/03/16 05:31:23;;;;;;;0.17;0.17;;;8.90;99.90;;;;;;4959381;28;20031;-86
2024/03/16 05:33:50;;;;;;;0.10;0.10;;;8.90;99.90;;;;;;4964882;28;20026;-86
2024/03/16 05:36:16;;;;;;;0.10;0.10;;;8.90;99.90;;;;;;4964710;28;20038;-86
2024/03/16 05:38:43;;;;;;;0.40;0.40;;;8.90;99.90;;;;;;4947212;28;20040;-87
2024/03/16 05:41:10;;;;;;;0.10;0.10;;;8.90;99.90;;;;;;4966555;28;20043;-79
2024/03/16 05:43:38;;;;;;;0.10;0.10;;;9.00;99.90;;;;;;4965725;28;20058;-87
2024/03/16 05:46:04;;;;;;;0.10;0.10;;;9.00;99.90;;;;;;4948655;28;20035;-83
2024/03/16 05:48:30;;;;;;;0.10;0.10;;;9.00;99.90;;;;;;4965484;28;20027;-87
2024/03/16 05:50:56;;;;;;;0.10;0.10;;;9.00;99.90;;;;;;4961200;28;20047;-88
2024/03/16 05:53:23;;;;;;;0.10;0.10;;;9.00;99.90;;;;;;4966431;28;20039;-88
2024/03/16 05:55:50;;;;;;;0.10;0.10;;;9.00;99.90;;;;;;4966413;28;20518;-87
2024/03/16 05:58:17;;;;;;;0.22;0.15;;;9.00;99.90;;;;;;4966167;28;20039;-89
2024/03/16 06:00:44;;;;;;;0.95;0.95;;;9.10;99.90;;;;;;4963543;28;20046;-88
2024/03/16 06:03:10;;;;;;;0.20;0.20;;;9.10;99.90;;;;;;4959933;28;20050;-80
2024/03/16 06:05:36;;;;;;;0.25;0.25;;;9.10;99.90;;;;;;4964545;28;20031;-89
2024/03/16 06:08:07;;;;;;;0.10;0.10;;;9.20;99.90;;;;;;4966804;28;20035;-90
2024/03/16 06:10:34;;;;;;;0.00;0.00;;;9.30;99.90;;;;;;4965980;28;20039;-90
2024/03/16 06:13:01;;;;;;;1.55;0.93;;;9.40;55.50;;;;;;4965867;28;20460;-90
2024/03/16 06:15:27;;;;;;;0.10;0.10;;;9.40;1.00;;;;;;4964124;28;20047;-90
2024/03/16 06:17:54;;;;;;;0.10;0.10;;;9.40;1.00;;;;;;4960047;28;20038;-90
2024/03/16 06:20:20;;;;;;;0.10;0.10;;;9.40;1.00;;;;;;4960881;28;20054;-88
2024/03/16 06:22:47;;;;;;;0.20;0.20;;;9.50;1.00;;;;;;4964820;28;20031;-91
2024/03/16 06:25:14;;;;;;;0.10;0.10;;;9.60;99.90;;;;;;4965742;28;20027;-81
2024/03/16 06:27:43;;;;;;;0.10;0.10;;;9.60;99.90;;;;;;4956655;28;20050;-89
2024/03/16 06:30:12;;;;;;;0.10;0.10;;;9.70;99.90;;;;;;4978139;28;20035;-89
2024/03/16 06:32:44;;;;;;;0.25;0.25;;;9.70;99.90;;;;;;4964311;28;20034;-90
2024/03/16 06:35:13;;;;;;;0.10;0.10;;;9.70;99.90;;;;;;4966852;28;20054;-81
2024/03/16 06:37:40;;;;;;;0.10;0.10;;;9.70;99.90;;;;;;4965625;28;20035;-91
2024/03/16 06:40:06;;;;;;;0.43;0.15;;;9.70;99.90;;;;;;4966490;28;20531;-90
2024/03/16 06:42:32;;;;;;;0.10;0.10;;;9.80;99.90;;;;;;4963889;28;20635;-87
2024/03/16 06:44:58;;;;;;;0.10;0.10;;;9.80;99.90;;;;;;4961547;28;20054;-90
2024/03/16 06:47:25;;;;;;;0.20;0.20;;;9.80;99.90;;;;;;4957698;28;20151;-90
2024/03/16 06:49:51;;;;;;;0.10;0.10;;;9.90;99.90;;;;;;4961966;28;20038;-88
2024/03/16 06:52:24;;;;;;;1.00;0.73;;;10.00;99.90;;;;;;4966971;28;20046;-87
2024/03/16 06:54:53;;;;;;;0.15;0.13;;;10.10;99.90;;;;;;4965559;28;20032;-86
2024/03/16 06:57:19;;;;;;;0.10;0.10;;;10.10;99.90;;;;;;4962995;28;20042;-85
2024/03/16 06:59:47;;;;;;;0.10;0.10;;;10.20;99.90;;;;;;4965390;28;20041;-88
2024/03/16 07:02:13;;;;;;;0.13;0.13;;;10.30;99.90;;;;;;4962940;28;20035;-80
2024/03/16 07:04:39;;;;;;;1.33;0.40;;;10.30;66.60;;;;;;4959896;28;20035;-87
2024/03/16 07:07:05;;;;;;;0.30;0.30;;;10.30;55.50;;;;;;4964763;28;20031;-84
2024/03/16 07:09:31;;;;;;;0.10;0.10;;;10.30;49.80;;;;;;4963261;28;20031;-86
2024/03/16 07:11:57;;;;;;;0.10;0.10;;;10.30;53.70;;;;;;4965063;28;20041;-85
2024/03/16 07:14:24;;;;;;;0.10;0.10;;;10.40;44.90;;;;;;4960660;28;20035;-82
2024/03/16 07:16:51;;;;;;;0.10;0.10;;;10.40;45.50;;;;;;4957031;28;20044;-82
2024/03/16 07:19:18;;;;;;;0.75;0.52;;;10.40;51.70;;;;;;4962168;28;20046;-87
2024/03/16 07:21:44;;;;;;;1.05;0.40;;;10.40;67.40;;;;;;4962956;28;20050;-83
2024/03/16 07:24:10;;;;;;;0.10;0.10;;;10.50;45.00;;;;;;4966749;28;20038;-84
2024/03/16 07:26:36;;;;;;;0.10;0.10;;;10.50;20.50;;;;;;4965081;28;20035;-85
2024/03/16 07:29:03;;;;;;;0.60;0.43;;;10.60;13.40;;;;;;4965502;28;20054;-83
2024/03/16 07:31:29;;;;;;;0.10;0.10;;;10.60;4.70;;;;;;4962056;28;20492;-82
2024/03/16 07:33:55;;;;;;;0.10;0.10;;;10.70;1.00;;;;;;4959418;28;20480;-81
2024/03/16 07:36:22;;;;;;;1.17;0.82;;;10.70;1.00;;;;;;4962468;28;20039;-82
2024/03/16 07:38:48;;;;;;;0.30;0.28;;;10.70;1.00;;;;;;4965293;28;20035;-82
2024/03/16 07:41:14;;;;;;;0.20;0.20;;;10.70;1.00;;;;;;4964772;28;20416;-76
2024/03/16 07:43:43;;;;;;;0.30;0.30;;;10.80;1.00;;;;;;4941786;29;20048;-81
2024/03/16 07:46:09;;;;;;;0.13;0.13;;;10.90;1.00;;;;;;4938982;29;20074;-78
2024/03/16 07:48:36;;;;;;;0.20;0.20;;;11.00;1.00;;;;;;4946250;29;20505;-81
2024/03/16 07:51:05;;;;;;;2.05;0.88;;;11.10;1.00;;;;;;4947175;29;20090;-81
2024/03/16 07:53:32;;;;;;;3.20;0.50;;;11.20;1.00;;;;;;4944397;29;20039;-83
2024/03/16 07:55:58;;;;;;;1.95;0.32;;;11.40;1.00;;;;;;4952565;29;20035;-82
2024/03/16 07:58:24;;;;;;;0.90;0.73;;;11.60;1.00;;;;;;4947816;29;20028;-81
2024/03/16 08:00:51;;;;;;;0.30;0.20;;;11.60;1.00;;;;;;4947886;29;20039;-81
2024/03/16 08:03:20;;;;;;;0.10;0.10;;;11.70;1.00;;;;;;4954181;29;20392;-76
2024/03/16 08:05:47;;;;;;;0.10;0.10;;;11.80;1.00;;;;;;4941503;29;20035;-82
2024/03/16 08:08:13;;;;;;;0.10;0.10;;;12.00;1.00;;;;;;4955279;29;20051;-75
2024/03/16 08:10:39;;;;;;;0.10;0.10;;;12.00;1.00;;;;;;4950374;28;20043;-82
2024/03/16 08:13:05;;;;;;;0.20;0.20;;;12.10;1.00;;;;;;4947915;29;20055;-81
2024/03/16 08:15:32;;;;;;;1.85;0.90;;;12.30;99.90;;;;;;4943238;29;20035;-81
2024/03/16 08:18:00;;;;;;;0.10;0.10;;;12.30;99.90;;;;;;4940489;29;20051;-78
2024/03/16 08:20:26;;;;;;;0.10;0.10;;;12.30;99.90;;;;;;4945901;29;20065;-79
2024/03/16 08:22:55;;;;;;;0.10;0.10;;;12.30;99.90;;;;;;4947602;29;20046;-79
2024/03/16 08:25:22;;;;;;;0.30;0.25;;;12.10;99.90;;;;;;4957710;28;20419;-80
2024/03/16 08:27:48;;;;;;;0.10;0.10;;;12.10;1.00;;;;;;4946988;29;20027;-80
2024/03/16 08:30:14;;;;;;;0.20;0.20;;;12.30;99.90;;;;;;4947596;29;20043;-76
2024/03/16 08:32:41;;;;;;;0.28;0.28;;;12.30;99.90;;;;;;4944007;29;20031;-81
2024/03/16 08:35:08;;;;;;;0.20;0.20;;;12.40;99.90;;;;;;4957708;28;20076;-79
2024/03/16 08:37:34;;;;;;;0.20;0.20;;;12.40;99.90;;;;;;4946037;29;20031;-80
2024/03/16 08:40:00;;;;;;;0.38;0.32;;;12.40;99.90;;;;;;4957207;28;20038;-81
2024/03/16 08:42:26;;;;;;;0.20;0.20;;;12.50;99.90;;;;;;4949832;28;20077;-80
2024/03/16 08:44:52;;;;;;;0.30;0.30;;;12.60;99.90;;;;;;4963773;28;20045;-80
2024/03/16 08:47:19;;;;;;;0.15;0.15;;;12.70;99.90;;;;;;4958573;28;20384;-77
2024/03/16 08:49:45;;;;;;;0.90;0.40;;;12.80;99.90;;;;;;4965070;28;20035;-80
2024/03/16 08:52:11;;;;;;;0.30;0.30;;;13.00;99.90;;;;;;4963544;28;20042;-80
2024/03/16 08:54:37;;;;;;;1.10;0.73;;;13.00;99.90;;;;;;4963485;28;20202;-79
2024/03/16 08:57:04;;;;;;;0.28;0.20;;;13.00;99.90;;;;;;4962400;28;20032;-79
2024/03/16 08:59:31;;;;;;;0.43;0.43;;;12.80;99.90;;;;;;4968755;28;20026;-77
2024/03/16 09:01:59;;;;;;;0.08;0.08;;;12.90;99.90;;;;;;4961559;28;20099;-78
2024/03/16 09:04:25;;;;;;;1.33;0.52;;;13.00;99.90;;;;;;4959086;28;20381;-81
2024/03/16 09:06:52;;;;;;;0.65;0.45;;;13.20;99.90;;;;;;4965307;28;20028;-79
2024/03/16 09:09:19;;;;;;;0.10;0.10;;;13.10;99.90;;;;;;4964506;28;20023;-77
2024/03/16 09:11:47;;;;;;;1.83;0.30;;;13.10;99.90;;;;;;4970927;28;20031;-82
2024/03/16 09:14:13;;;;;;;0.30;0.30;;;13.20;99.90;;;;;;4968074;28;20042;-78
2024/03/16 09:16:42;;;;;;;1.20;1.00;;;13.30;99.90;;;;;;4958122;28;20031;-82
2024/03/16 09:19:08;;;;;;;0.20;0.20;;;13.30;84.50;;;;;;4965386;28;20042;-81
2024/03/16 09:21:34;;;;;;;0.15;0.15;;;13.40;86.30;;;;;;4963094;28;20469;-80
2024/03/16 09:24:00;;;;;;;1.27;1.17;;;13.40;90.70;;;;;;4967757;28;20042;-82
2024/03/16 09:26:27;;;;;;;0.28;0.20;;;13.40;68.20;;;;;;4965227;28;20030;-81
2024/03/16 09:28:53;;;;;;;0.57;0.57;;;13.50;80.80;;;;;;4964206;28;20027;-82
2024/03/16 09:31:23;;;;;;;0.75;0.57;;;13.20;53.50;;;;;;4962220;28;20046;-80
2024/03/16 09:33:50;;;;;;;0.15;0.15;;;13.00;99.90;;;;;;4962714;28;20042;-81
2024/03/16 09:36:16;;;;;;;0.20;0.20;;;13.00;99.90;;;;;;4959768;28;20026;-81
2024/03/16 09:38:43;;;;;;;0.15;0.15;;;13.00;99.90;;;;;;4966053;28;20483;-81
2024/03/16 09:41:20;;;;;;;2.72;0.75;;;13.10;99.90;;;;;;4967995;28;20047;-81
2024/03/16 09:43:47;;;;;;;0.10;0.10;;;13.00;99.90;;;;;;4965558;28;20055;-80
2024/03/16 09:46:14;;;;;;;2.65;0.30;;;12.80;99.90;;;;;;4960282;28;20074;-78
2024/03/16 09:48:41;;;;;;;0.10;0.10;;;12.80;99.90;;;;;;4956676;28;20050;-81
2024/03/16 09:51:15;;;;;;;0.93;0.68;;;12.70;99.90;;;;;;4964728;28;20472;-82
2024/03/16 09:53:41;;;;;;;0.22;0.22;;;12.60;99.90;;;;;;4964144;28;20050;-80
2024/03/16 09:56:11;;;;;;;0.17;0.17;;;12.60;99.90;;;;;;4966163;28;20039;-80
2024/03/16 09:58:40;;;;;;;0.20;0.20;;;12.80;99.90;;;;;;4963501;28;20408;-81
2024/03/16 10:01:08;;;;;;;0.73;0.43;;;12.80;99.90;;;;;;4963112;28;20043;-80
2024/03/16 10:03:35;;;;;;;0.45;0.45;;;13.00;99.90;;;;;;4960235;28;20384;-81
2024/03/16 10:06:07;;;;;;;0.10;0.10;;;13.20;99.90;;;;;;4962254;28;20039;-77
2024/03/16 10:08:36;;;;;;;25.42;2.08;;;13.30;99.90;;;;;;4964508;28;20038;-81
2024/03/16 10:11:14;;;;;;;0.50;0.50;;;13.30;99.90;;;;;;4966893;28;20055;-80
2024/03/16 10:13:58;;;;;;;1.65;1.55;;;13.40;87.40;;;;;;4966766;28;20050;-80
2024/03/16 10:16:25;;;;;;;0.30;0.30;;;13.60;1.00;;;;;;4956827;28;20031;-81
2024/03/16 10:18:55;;;;;;;0.10;0.10;;;13.60;1.00;;;;;;4965137;28;20042;-82
2024/03/16 10:21:21;;;;;;;0.73;0.73;;;13.80;1.00;;;;;;4959199;28;20050;-76
2024/03/16 10:23:47;;;;;;;0.20;0.20;;;13.80;99.90;;;;;;4966216;28;20046;-82
2024/03/16 10:26:14;;;;;;;0.20;0.20;;;13.90;1.00;;;;;;4963872;28;20035;-82
2024/03/16 10:28:43;;;;;;;0.52;0.20;;;14.00;99.90;;;;;;4947998;28;20780;-76
2024/03/16 10:31:10;;;;;;;0.10;0.10;;;13.80;99.90;;;;;;4959901;28;20042;-81
2024/03/16 10:33:38;;;;;;;0.10;0.10;;;13.60;99.90;;;;;;4958358;28;20047;-80
2024/03/16 10:36:12;;;;;;;1.45;0.73;;;13.60;99.90;;;;;;4962998;28;20153;-78
2024/03/16 10:38:42;;;;;;;0.10;0.10;;;13.70;99.90;;;;;;4962108;28;20031;-79
2024/03/16 10:41:11;;;;;;;0.10;0.10;;;13.70;99.90;;;;;;4952398;28;20051;-79
2024/03/16 10:43:38;;;;;;;0.63;0.32;;;13.70;1.00;;;;;;4959834;28;20051;-78
2024/03/16 10:46:09;;;;;;;0.22;0.22;;;13.70;1.00;;;;;;4959942;28;20035;-79
2024/03/16 10:48:36;;;;;;;0.10;0.10;;;13.70;1.00;;;;;;4960000;28;20043;-78
2024/03/16 10:51:07;;;;;;;0.22;0.22;;;13.70;1.00;;;;;;4960231;28;20050;-78
2024/03/16 10:53:35;;;;;;;0.60;0.60;;;13.90;1.00;;;;;;4961914;28;20054;-78
2024/03/16 10:56:03;;;;;;;0.10;0.10;;;13.80;1.00;;;;;;4963310;28;20476;-77
2024/03/16 10:58:29;;;;;;;0.17;0.17;;;13.70;1.00;;;;;;4960446;28;20031;-80
2024/03/16 11:01:02;;;;;;;0.10;0.10;;;13.90;1.00;;;;;;4961948;28;20046;-80
2024/03/16 11:03:31;;;;;;;0.40;0.30;;;14.20;99.90;;;;;;4956855;28;20050;-79
2024/03/16 11:06:15;;;;;;;0.20;0.20;;;14.60;99.90;;;;;;4961828;28;20039;-79
2024/03/16 11:08:42;;;;;;;0.13;0.13;;;14.70;99.90;;;;;;4963614;28;20057;-77
2024/03/16 11:11:10;;;;;;;0.20;0.20;;;14.50;99.90;;;;;;4966596;28;20046;-79
2024/03/16 11:13:36;;;;;;;0.35;0.30;;;14.40;99.90;;;;;;4962851;28;20043;-80
2024/03/16 11:16:27;;;;;;;0.68;0.68;;;14.50;99.90;;;;;;4960521;28;20031;-77
2024/03/16 11:18:58;;;;;;;0.43;0.43;;;14.50;87.20;;;;;;4959661;28;20386;-78
2024/03/16 11:21:31;;;;;;;0.50;0.50;;;14.50;76.90;;;;;;4963344;28;20051;-78
2024/03/16 11:24:04;;;;;;;0.10;0.10;;;14.60;29.80;;;;;;4965523;28;20043;-77
2024/03/16 11:26:34;;;;;;;0.52;0.20;;;14.90;1.00;;;;;;4967464;28;20027;-77
2024/03/16 11:29:00;;;;;;;0.20;0.20;;;15.10;16.40;;;;;;4964404;28;20027;-78
2024/03/16 11:31:40;;;;;;;0.20;0.20;;;15.30;1.00;;;;;;4960505;28;20059;-77
2024/03/16 11:34:16;;;;;;;0.68;0.30;;;15.00;1.00;;;;;;4970075;28;20038;-79
2024/03/16 11:36:56;;;;;;;0.10;0.10;;;14.80;1.00;;;;;;4964067;28;20412;-78
2024/03/16 11:39:29;;;;;;;0.10;0.10;;;14.80;1.00;;;;;;4970811;28;20034;-79
2024/03/16 11:42:05;;;;;;;0.10;0.10;;;14.90;1.00;;;;;;4968131;28;20313;-78
2024/03/16 11:44:34;;;;;;;0.10;0.10;;;14.80;1.00;;;;;;4967630;28;20396;-79
2024/03/16 11:47:04;;;;;;;0.10;0.10;;;14.70;1.00;;;;;;4971290;28;20039;-79
2024/03/16 11:49:31;;;;;;;0.13;0.10;;;14.30;1.00;;;;;;4969462;28;20031;-80
2024/03/16 11:51:58;;;;;;;0.20;0.20;;;13.70;99.90;;;;;;4972366;28;20039;-79
2024/03/16 11:54:25;;;;;;;0.10;0.10;;;13.00;1.00;;;;;;4971333;28;20034;-80
2024/03/16 11:56:51;;;;;;;0.10;0.10;;;12.70;6.90;;;;;;4966348;28;20046;-78
2024/03/16 11:59:18;;;;;;;1.75;0.75;;;12.40;99.90;;;;;;4967634;28;20031;-78
2024/03/16 12:01:55;;;;;;;0.10;0.10;;;11.90;99.90;;;;;;4964079;28;20261;-78
2024/03/16 12:04:26;;;;;;;0.22;0.22;;;11.70;99.90;;;;;;4960497;28;20046;-76
2024/03/16 12:06:56;;;;;;;0.20;0.20;;;11.60;99.90;;;;;;4966573;28;20051;-79
2024/03/16 12:09:30;;;;;;;0.10;0.10;;;11.60;99.90;;;;;;4967365;28;20045;-83
2024/03/16 12:12:00;;;;;;;0.25;0.20;;;11.40;1.00;;;;;;4969500;28;20042;-78
2024/03/16 12:14:27;;;;;;;0.10;0.10;;;11.40;1.00;;;;;;4954028;28;20054;-77
2024/03/16 12:16:54;;;;;;;0.10;0.10;;;11.30;1.00;;;;;;4964043;28;20282;-82
2024/03/16 12:19:21;;;;;;;0.10;0.10;;;11.20;1.00;;;;;;4964725;28;20035;-85
2024/03/16 12:21:49;;;;;;;0.38;0.38;;;11.10;40.70;;;;;;4965194;28;20514;-84
2024/03/16 12:24:19;;;;;;;0.10;0.10;;;10.90;40.00;;;;;;4968378;28;20034;-82
2024/03/16 12:26:47;;;;;;;0.10;0.10;;;10.90;97.30;;;;;;4967168;28;20277;-84
2024/03/16 12:29:17;;;;;;;0.17;0.17;;;10.90;99.90;;;;;;4966088;28;20465;-83
2024/03/16 12:31:44;;;;;;;0.30;0.30;;;11.00;99.90;;;;;;4961993;28;20094;-82
2024/03/16 12:34:12;;;;;;;0.10;0.10;;;11.00;99.90;;;;;;4962723;28;20043;-84
2024/03/16 12:36:39;;;;;;;0.10;0.10;;;11.20;99.90;;;;;;4963499;28;20058;-82
2024/03/16 12:39:11;;;;;;;0.30;0.30;;;11.30;99.90;;;;;;4968768;28;20034;-82
2024/03/16 12:41:49;;;;;;;0.20;0.20;;;11.60;99.90;;;;;;4966628;28;20039;-83
2024/03/16 12:44:17;;;;;;;0.50;0.50;;;11.70;1.00;;;;;;4967318;28;20051;-83
2024/03/16 12:46:45;;;;;;;0.10;0.10;;;11.80;10.40;;;;;;4959137;28;20039;-83
2024/03/16 12:49:12;;;;;;;0.25;0.25;;;11.90;1.00;;;;;;4958801;28;20046;-86
2024/03/16 12:51:39;;;;;;;0.10;0.10;;;11.90;1.00;;;;;;4965892;28;20043;-83
2024/03/16 12:54:07;;;;;;;0.10;0.10;;;11.90;1.00;;;;;;4966762;28;20491;-80